Time;durP1;ratioP1;P1;durP2;ratioP2;P2;SDS_P1;SDS_P2;PMS_P1;PMS_P2;Temp;Humidity;BMP_temperature;BMP_pressure;BME280_temperature;BME280_humidity;BME280_pressure;Samples;Min_cycle;Max_cycle;Signal;HPM_P1;HPM_P2
2023/05/11 00:01:05;;;;;;;1.85;1.08;;;10.40;99.90;;;;;;5074799;28;20190;-68
2023/05/11 00:03:33;;;;;;;3.35;1.20;;;10.40;99.90;;;;;;5074538;28;20190;-68
2023/05/11 00:06:02;;;;;;;2.63;1.63;;;10.30;99.90;;;;;;5074448;28;20201;-68
2023/05/11 00:08:29;;;;;;;2.00;1.10;;;10.40;99.90;;;;;;5073900;28;20637;-68
2023/05/11 00:10:56;;;;;;;2.63;1.25;;;10.50;99.90;;;;;;5075006;28;20200;-68
2023/05/11 00:13:23;;;;;;;2.13;1.13;;;10.50;99.90;;;;;;5073955;28;20632;-68
2023/05/11 00:15:50;;;;;;;2.20;0.98;;;10.50;99.90;;;;;;5074474;28;20635;-68
2023/05/11 00:18:18;;;;;;;3.05;1.30;;;10.50;99.90;;;;;;5073766;28;20271;-68
2023/05/11 00:20:46;;;;;;;3.05;1.60;;;10.40;99.90;;;;;;5074559;28;20186;-68
2023/05/11 00:23:15;;;;;;;2.50;1.50;;;10.50;99.90;;;;;;5073844;28;20225;-68
2023/05/11 00:25:42;;;;;;;4.63;1.20;;;10.50;99.90;;;;;;5074447;28;20209;-68
2023/05/11 00:28:10;;;;;;;2.00;0.90;;;10.50;99.90;;;;;;5074270;28;20725;-68
2023/05/11 00:30:37;;;;;;;3.15;1.25;;;10.50;99.90;;;;;;5073261;28;20189;-68
2023/05/11 00:33:04;;;;;;;3.38;1.75;;;10.50;99.90;;;;;;5073962;28;20190;-68
2023/05/11 00:35:32;;;;;;;2.08;1.15;;;10.50;99.90;;;;;;5073420;28;20210;-68
2023/05/11 00:37:59;;;;;;;2.97;1.45;;;10.50;99.90;;;;;;5074038;28;20262;-68
2023/05/11 00:40:28;;;;;;;2.53;1.00;;;10.40;99.90;;;;;;5074089;28;20203;-68
2023/05/11 00:42:56;;;;;;;2.47;1.20;;;10.40;99.90;;;;;;5073982;28;20220;-68
2023/05/11 00:45:24;;;;;;;2.03;1.05;;;10.40;99.90;;;;;;5073870;28;20265;-68
2023/05/11 00:47:51;;;;;;;1.85;1.15;;;10.30;99.90;;;;;;5073974;28;20660;-68
2023/05/11 00:50:19;;;;;;;3.30;1.13;;;10.30;99.90;;;;;;5073328;28;20189;-68
2023/05/11 00:52:47;;;;;;;2.95;0.80;;;10.30;99.90;;;;;;5073982;28;20198;-68
2023/05/11 00:55:14;;;;;;;2.70;1.25;;;10.30;99.90;;;;;;5073428;28;20620;-68
2023/05/11 00:57:44;;;;;;;3.22;1.33;;;10.30;99.90;;;;;;5073511;28;20189;-68
2023/05/11 01:00:12;;;;;;;1.80;0.90;;;10.30;99.90;;;;;;5073587;28;20198;-68
2023/05/11 01:02:40;;;;;;;2.17;1.08;;;10.30;99.90;;;;;;5073935;28;20193;-68
2023/05/11 01:05:08;;;;;;;3.97;1.30;;;10.30;99.90;;;;;;5073459;28;20182;-68
2023/05/11 01:07:42;;;;;;;2.10;1.00;;;10.30;99.90;;;;;;5073241;28;20636;-68
2023/05/11 01:10:17;;;;;;;2.10;0.88;;;10.30;99.90;;;;;;5073158;28;20649;-68
2023/05/11 01:12:58;;;;;;;2.72;1.20;;;10.30;99.90;;;;;;5073737;28;20530;-68
2023/05/11 01:15:35;;;;;;;2.22;1.00;;;10.30;99.90;;;;;;5072907;28;20217;-68
2023/05/11 01:18:11;;;;;;;3.35;0.98;;;10.30;99.90;;;;;;5073059;28;20225;-68
2023/05/11 01:20:41;;;;;;;2.42;1.13;;;10.30;99.90;;;;;;5072722;28;20181;-68
2023/05/11 01:23:50;;;;;;;2.60;0.98;;;10.20;99.90;;;;;;5073318;28;20387;-68
2023/05/11 01:26:45;;;;;;;2.40;1.25;;;10.20;99.90;;;;;;5031110;28;20191;-69
2023/05/11 01:29:41;;;;;;;4.82;1.00;;;10.20;99.90;;;;;;5057474;28;20236;-68
2023/05/11 01:32:16;;;;;;;3.58;1.30;;;10.20;99.90;;;;;;5073116;28;20723;-68
2023/05/11 01:34:47;;;;;;;1.77;0.90;;;10.20;99.90;;;;;;5072853;28;20202;-68
2023/05/11 01:37:18;;;;;;;1.88;0.93;;;10.20;99.90;;;;;;5073141;28;20224;-68
2023/05/11 01:39:52;;;;;;;2.70;0.90;;;10.20;99.90;;;;;;5072120;28;20690;-68
2023/05/11 01:42:28;;;;;;;2.22;0.90;;;10.10;99.90;;;;;;5072183;28;20231;-68
2023/05/11 01:44:58;;;;;;;3.28;1.02;;;10.10;99.90;;;;;;5071954;28;20654;-68
2023/05/11 01:47:30;;;;;;;1.95;0.80;;;10.10;99.90;;;;;;5072717;28;20266;-68
2023/05/11 01:50:00;;;;;;;1.70;0.98;;;10.10;99.90;;;;;;5072506;28;20197;-68
2023/05/11 01:52:29;;;;;;;1.60;0.80;;;10.10;99.90;;;;;;5072764;28;20235;-68
2023/05/11 01:54:59;;;;;;;2.25;0.85;;;10.10;99.90;;;;;;5072396;28;20664;-68
2023/05/11 01:57:27;;;;;;;1.70;0.88;;;10.00;99.90;;;;;;5072059;28;20186;-68
2023/05/11 01:59:57;;;;;;;1.60;0.70;;;10.00;99.90;;;;;;5072939;28;20247;-68
2023/05/11 02:02:26;;;;;;;1.80;0.82;;;10.00;99.90;;;;;;5072294;28;20243;-68
2023/05/11 02:04:54;;;;;;;1.80;0.85;;;9.90;99.90;;;;;;5072304;28;20192;-68
2023/05/11 02:07:24;;;;;;;2.63;0.70;;;9.90;99.90;;;;;;5072111;28;20190;-68
2023/05/11 02:09:53;;;;;;;1.75;0.73;;;9.90;99.90;;;;;;5072331;28;20197;-68
2023/05/11 02:12:22;;;;;;;1.70;0.80;;;9.90;99.90;;;;;;5071450;28;20583;-68
2023/05/11 02:14:52;;;;;;;1.63;0.60;;;9.90;99.90;;;;;;5071672;28;20273;-68
2023/05/11 02:17:22;;;;;;;1.90;0.60;;;9.90;99.90;;;;;;5072359;28;20218;-68
2023/05/11 02:19:51;;;;;;;2.70;0.60;;;10.00;99.90;;;;;;5071943;28;20222;-68
2023/05/11 02:22:20;;;;;;;1.80;0.80;;;9.90;99.90;;;;;;5052398;28;20186;-68
2023/05/11 02:24:49;;;;;;;1.60;0.70;;;9.80;99.90;;;;;;5061704;28;20192;-68
2023/05/11 02:27:16;;;;;;;1.73;0.80;;;9.80;99.90;;;;;;5071794;28;20186;-68
2023/05/11 02:29:43;;;;;;;1.65;0.80;;;9.90;99.90;;;;;;5071062;28;20193;-68
2023/05/11 02:32:20;;;;;;;1.60;0.80;;;9.80;99.90;;;;;;5070617;28;20272;-69
2023/05/11 02:34:54;;;;;;;3.45;0.68;;;9.70;99.90;;;;;;5071967;28;20193;-68
2023/05/11 02:37:25;;;;;;;2.78;0.90;;;9.70;99.90;;;;;;5071685;28;20224;-68
2023/05/11 02:39:58;;;;;;;1.70;0.88;;;9.70;99.90;;;;;;5071623;28;20190;-68
2023/05/11 02:42:27;;;;;;;1.60;0.80;;;9.70;99.90;;;;;;5071894;28;20185;-68
2023/05/11 02:44:58;;;;;;;1.60;0.60;;;9.70;99.90;;;;;;5052238;28;20202;-68
2023/05/11 02:47:29;;;;;;;1.58;0.75;;;9.60;99.90;;;;;;5053287;28;20260;-68
2023/05/11 02:50:03;;;;;;;2.08;1.13;;;9.50;99.90;;;;;;5072021;28;20189;-68
2023/05/11 02:52:31;;;;;;;2.10;0.90;;;9.50;99.90;;;;;;5071608;28;20543;-68
2023/05/11 02:55:01;;;;;;;2.70;1.20;;;9.50;99.90;;;;;;5075893;28;20199;-69
2023/05/11 02:57:29;;;;;;;1.95;0.80;;;9.50;99.90;;;;;;5075472;28;20217;-68
2023/05/11 02:59:56;;;;;;;3.17;1.23;;;9.40;99.90;;;;;;5075497;28;20185;-68
2023/05/11 03:02:23;;;;;;;2.13;1.23;;;9.40;99.90;;;;;;5075446;28;20193;-68
2023/05/11 03:04:51;;;;;;;2.97;1.35;;;9.40;99.90;;;;;;5075439;28;20275;-68
2023/05/11 03:07:19;;;;;;;2.40;1.10;;;9.40;99.90;;;;;;5075371;28;20640;-68
2023/05/11 03:09:47;;;;;;;2.88;0.90;;;9.50;99.90;;;;;;5075936;28;20589;-68
2023/05/11 03:12:15;;;;;;;2.08;1.17;;;9.50;99.90;;;;;;5075309;28;20231;-68
2023/05/11 03:14:44;;;;;;;2.10;0.90;;;9.50;99.90;;;;;;5075371;28;20590;-68
2023/05/11 03:17:14;;;;;;;4.47;1.20;;;9.60;99.90;;;;;;5075089;28;20225;-68
2023/05/11 03:19:42;;;;;;;2.00;1.20;;;9.60;99.90;;;;;;5075632;28;20229;-68
2023/05/11 03:22:10;;;;;;;2.80;1.95;;;9.60;99.90;;;;;;5075212;28;20194;-68
2023/05/11 03:24:40;;;;;;;3.30;3.00;;;9.70;99.90;;;;;;5075518;28;20200;-68
2023/05/11 03:27:08;;;;;;;2.10;1.20;;;9.70;99.90;;;;;;5074883;28;20272;-68
2023/05/11 03:29:38;;;;;;;2.00;0.98;;;9.70;99.90;;;;;;5075444;28;20228;-68
2023/05/11 03:32:06;;;;;;;2.42;1.00;;;9.80;99.90;;;;;;5074704;28;20268;-68
2023/05/11 03:34:33;;;;;;;2.17;1.20;;;9.70;99.90;;;;;;5075111;28;20189;-68
2023/05/11 03:37:06;;;;;;;1.90;0.85;;;9.70;99.90;;;;;;5074753;28;20549;-68
2023/05/11 03:39:35;;;;;;;1.70;0.70;;;9.70;99.90;;;;;;5074764;28;20559;-68
2023/05/11 03:42:04;;;;;;;1.50;0.70;;;9.70;99.90;;;;;;5074981;28;20221;-68
2023/05/11 03:44:32;;;;;;;1.60;0.70;;;9.70;99.90;;;;;;5075068;28;20213;-68
2023/05/11 03:47:04;;;;;;;1.70;0.68;;;9.70;99.90;;;;;;5074397;28;20272;-69
2023/05/11 03:49:31;;;;;;;1.75;0.90;;;9.70;99.90;;;;;;5074740;28;20519;-68
2023/05/11 03:52:00;;;;;;;2.15;1.00;;;9.60;99.90;;;;;;5073940;28;20200;-68
2023/05/11 03:54:27;;;;;;;1.75;0.73;;;9.60;99.90;;;;;;5074718;28;20280;-68
2023/05/11 03:56:54;;;;;;;1.92;0.80;;;9.60;99.90;;;;;;5075053;28;20214;-69
2023/05/11 03:59:23;;;;;;;2.10;0.80;;;9.60;99.90;;;;;;5074813;28;20322;-68
2023/05/11 04:01:52;;;;;;;2.30;0.70;;;9.60;99.90;;;;;;5074351;28;20185;-68
2023/05/11 04:04:20;;;;;;;1.85;0.77;;;9.60;99.90;;;;;;5074184;28;20299;-68
2023/05/11 04:06:47;;;;;;;2.00;1.00;;;9.70;99.90;;;;;;5074272;28;20194;-68
2023/05/11 04:09:15;;;;;;;2.22;0.90;;;9.70;99.90;;;;;;5074454;28;20602;-68
2023/05/11 04:11:43;;;;;;;3.55;1.27;;;9.70;99.90;;;;;;5074877;28;20564;-68
2023/05/11 04:14:10;;;;;;;1.80;0.80;;;9.70;99.90;;;;;;5073999;28;20182;-68
2023/05/11 04:16:40;;;;;;;2.95;0.80;;;9.70;99.90;;;;;;5074527;28;20263;-68
2023/05/11 04:19:07;;;;;;;3.00;1.13;;;9.80;99.90;;;;;;5074156;28;20788;-68
2023/05/11 04:21:35;;;;;;;1.55;0.70;;;9.80;99.90;;;;;;5074446;28;20190;-68
2023/05/11 04:24:02;;;;;;;2.13;1.10;;;9.80;99.90;;;;;;5074156;28;20224;-68
2023/05/11 04:26:29;;;;;;;1.75;0.80;;;9.80;99.90;;;;;;5073810;28;20233;-68
2023/05/11 04:28:56;;;;;;;1.80;0.85;;;9.70;99.90;;;;;;5074071;28;20189;-68
2023/05/11 04:31:24;;;;;;;1.85;0.90;;;9.60;99.90;;;;;;5073965;28;20202;-68
2023/05/11 04:33:53;;;;;;;1.80;0.90;;;9.60;99.90;;;;;;5074161;28;20193;-68
2023/05/11 04:36:21;;;;;;;1.60;0.70;;;9.50;99.90;;;;;;5073913;28;20209;-68
2023/05/11 04:38:48;;;;;;;1.60;0.80;;;9.50;99.90;;;;;;5073842;28;20182;-68
2023/05/11 04:41:16;;;;;;;4.00;1.30;;;9.40;99.90;;;;;;5073299;28;20197;-68
2023/05/11 04:43:44;;;;;;;1.83;0.80;;;9.50;99.90;;;;;;5074196;28;20193;-68
2023/05/11 04:46:12;;;;;;;1.85;0.98;;;9.50;99.90;;;;;;5073601;28;20641;-68
2023/05/11 04:48:39;;;;;;;2.00;0.90;;;9.50;99.90;;;;;;5073989;28;20196;-68
2023/05/11 04:51:07;;;;;;;2.40;1.02;;;9.50;99.90;;;;;;5073508;28;20188;-68
2023/05/11 04:53:35;;;;;;;2.90;1.58;;;9.50;99.90;;;;;;5073848;28;20260;-68
2023/05/11 04:56:02;;;;;;;2.30;1.05;;;9.60;99.90;;;;;;5073499;28;20324;-68
2023/05/11 04:58:29;;;;;;;2.00;1.10;;;9.60;99.90;;;;;;5073668;28;20228;-69
2023/05/11 05:00:57;;;;;;;1.90;0.90;;;9.70;99.90;;;;;;5073114;28;20193;-69
2023/05/11 05:03:25;;;;;;;1.73;0.93;;;9.70;99.90;;;;;;5073432;28;20193;-69
2023/05/11 05:05:53;;;;;;;3.70;1.73;;;9.80;99.90;;;;;;5071039;28;20237;-68
2023/05/11 05:08:22;;;;;;;2.03;0.70;;;9.80;99.90;;;;;;5072633;28;20277;-68
2023/05/11 05:10:49;;;;;;;3.03;1.55;;;9.80;99.90;;;;;;5072243;28;20201;-68
2023/05/11 05:13:16;;;;;;;1.90;1.02;;;9.80;99.90;;;;;;5072911;28;20218;-68
2023/05/11 05:15:43;;;;;;;1.90;0.90;;;9.90;99.90;;;;;;5071528;28;20707;-68
2023/05/11 05:18:11;;;;;;;1.70;0.80;;;9.90;99.90;;;;;;5072447;28;20332;-68
2023/05/11 05:20:38;;;;;;;2.17;0.80;;;9.90;99.90;;;;;;5072361;28;20236;-69
2023/05/11 05:23:05;;;;;;;1.80;0.70;;;10.10;99.90;;;;;;5072735;28;20225;-68
2023/05/11 05:25:34;;;;;;;1.70;0.80;;;10.10;99.90;;;;;;5072512;28;20233;-69
2023/05/11 05:28:01;;;;;;;1.70;0.88;;;10.10;99.90;;;;;;5072535;28;20663;-68
2023/05/11 05:30:28;;;;;;;1.90;0.98;;;10.10;99.90;;;;;;5072365;28;20197;-68
2023/05/11 05:32:58;;;;;;;2.22;1.13;;;10.10;99.90;;;;;;5072443;28;20246;-68
2023/05/11 05:35:25;;;;;;;1.60;0.70;;;10.10;99.90;;;;;;5077737;28;20534;-68
2023/05/11 05:37:52;;;;;;;1.80;0.80;;;10.10;99.90;;;;;;5072401;28;20225;-68
2023/05/11 05:40:19;;;;;;;1.60;0.80;;;10.10;99.90;;;;;;5071886;28;20243;-68
2023/05/11 05:42:48;;;;;;;1.80;0.80;;;10.20;99.90;;;;;;5072255;28;20228;-68
2023/05/11 05:45:16;;;;;;;1.60;0.70;;;10.20;99.90;;;;;;5068351;28;20612;-68
2023/05/11 05:47:43;;;;;;;1.83;0.75;;;10.10;99.90;;;;;;5071903;28;20195;-68
2023/05/11 05:50:10;;;;;;;1.70;0.73;;;10.20;99.90;;;;;;5069946;28;20194;-68
2023/05/11 05:52:37;;;;;;;3.20;0.80;;;10.20;99.90;;;;;;5072151;28;20236;-68
2023/05/11 05:55:05;;;;;;;2.17;1.30;;;10.20;99.90;;;;;;5070240;28;20201;-68
2023/05/11 05:57:32;;;;;;;1.70;0.90;;;10.20;99.90;;;;;;5068119;28;20355;-68
2023/05/11 06:00:01;;;;;;;1.67;0.77;;;10.20;99.90;;;;;;5071090;28;20250;-68
2023/05/11 06:02:33;;;;;;;2.17;1.00;;;10.20;99.90;;;;;;5071444;28;20221;-68
2023/05/11 06:05:00;;;;;;;2.58;1.60;;;10.20;99.90;;;;;;5071064;28;20220;-68
2023/05/11 06:07:27;;;;;;;3.30;2.30;;;10.20;99.90;;;;;;5071903;28;20239;-68
2023/05/11 06:10:00;;;;;;;2.22;0.90;;;10.20;99.90;;;;;;5075320;28;20213;-69
2023/05/11 06:12:27;;;;;;;2.25;1.20;;;10.20;99.90;;;;;;5067719;28;20285;-68
2023/05/11 06:14:56;;;;;;;2.25;1.15;;;10.20;99.90;;;;;;5070267;28;20557;-68
2023/05/11 06:17:24;;;;;;;2.40;1.00;;;10.30;99.90;;;;;;5070875;28;20210;-68
2023/05/11 06:19:51;;;;;;;1.75;0.80;;;10.30;99.90;;;;;;5067106;28;20214;-68
2023/05/11 06:22:23;;;;;;;2.25;1.10;;;10.40;99.90;;;;;;5071257;28;20218;-68
2023/05/11 06:24:54;;;;;;;2.17;1.10;;;10.40;99.90;;;;;;5071167;28;20221;-68
2023/05/11 06:27:21;;;;;;;1.90;0.90;;;10.40;99.90;;;;;;5071054;28;20225;-68
2023/05/11 06:29:51;;;;;;;1.98;1.05;;;10.40;99.90;;;;;;5070627;28;20189;-69
2023/05/11 06:32:24;;;;;;;1.80;0.85;;;10.40;99.80;;;;;;5073841;28;20261;-68
2023/05/11 06:34:51;;;;;;;1.95;0.98;;;10.40;99.60;;;;;;5083819;28;20193;-68
2023/05/11 06:37:19;;;;;;;2.67;1.05;;;10.40;99.90;;;;;;5092351;28;20308;-68
2023/05/11 06:39:49;;;;;;;1.90;0.80;;;10.50;99.90;;;;;;5092913;28;20215;-68
2023/05/11 06:42:16;;;;;;;3.45;1.20;;;10.60;99.90;;;;;;5092758;28;20189;-68
2023/05/11 06:44:43;;;;;;;2.00;0.80;;;10.60;99.90;;;;;;5091243;28;20189;-68
2023/05/11 06:47:12;;;;;;;1.70;0.80;;;10.70;99.90;;;;;;5093025;28;20261;-68
2023/05/11 06:49:41;;;;;;;1.60;0.60;;;10.70;99.90;;;;;;5092930;28;20221;-68
2023/05/11 06:52:09;;;;;;;2.13;0.70;;;10.70;99.70;;;;;;5092684;28;20270;-68
2023/05/11 06:54:36;;;;;;;1.70;0.80;;;10.70;99.60;;;;;;5092706;28;20639;-68
2023/05/11 06:57:03;;;;;;;2.35;0.70;;;10.70;99.50;;;;;;5092345;28;20307;-68
2023/05/11 06:59:33;;;;;;;1.70;0.80;;;10.80;99.30;;;;;;5092320;28;20189;-69
2023/05/11 07:02:00;;;;;;;1.70;0.70;;;10.80;98.90;;;;;;5092280;28;20280;-68
2023/05/11 07:04:28;;;;;;;1.70;0.80;;;10.80;98.60;;;;;;5092657;28;20225;-68
2023/05/11 07:06:57;;;;;;;1.80;0.73;;;10.80;98.30;;;;;;5092777;28;20250;-68
2023/05/11 07:09:24;;;;;;;1.73;0.80;;;10.80;98.60;;;;;;5092187;28;20228;-68
2023/05/11 07:11:52;;;;;;;1.60;0.70;;;10.90;98.50;;;;;;5092608;28;20191;-68
2023/05/11 07:14:19;;;;;;;1.63;0.60;;;10.90;98.30;;;;;;5092606;28;20233;-68
2023/05/11 07:16:51;;;;;;;2.03;0.90;;;10.90;98.50;;;;;;5092136;28;20655;-68
2023/05/11 07:19:18;;;;;;;2.17;0.90;;;10.90;98.60;;;;;;5092023;28;20255;-68
2023/05/11 07:21:45;;;;;;;1.90;0.90;;;10.90;98.90;;;;;;5092456;28;20786;-68
2023/05/11 07:24:14;;;;;;;23.13;12.93;;;10.90;98.90;;;;;;5092937;28;20185;-68
2023/05/11 07:26:41;;;;;;;14.33;6.83;;;10.90;99.30;;;;;;5092131;28;20216;-68
2023/05/11 07:29:08;;;;;;;4.85;2.35;;;11.00;99.40;;;;;;5092708;28;20435;-69
2023/05/11 07:31:36;;;;;;;4.20;1.92;;;11.10;99.70;;;;;;5092333;28;20224;-68
2023/05/11 07:34:04;;;;;;;1.88;1.10;;;11.10;99.20;;;;;;5092584;28;20593;-68
2023/05/11 07:36:33;;;;;;;2.00;1.00;;;11.20;98.70;;;;;;5092295;28;20558;-68
2023/05/11 07:39:00;;;;;;;1.75;0.80;;;11.20;98.30;;;;;;5092142;28;20892;-68
2023/05/11 07:41:33;;;;;;;3.45;1.30;;;11.30;98.60;;;;;;5094774;28;20215;-68
2023/05/11 07:44:02;;;;;;;1.80;1.10;;;11.30;98.00;;;;;;5096036;28;20185;-68
2023/05/11 07:46:29;;;;;;;2.17;1.20;;;11.30;98.10;;;;;;5095839;28;20924;-68
2023/05/11 07:49:10;;;;;;;15.17;10.73;;;11.40;97.90;;;;;;5095526;28;20189;-68
2023/05/11 07:51:39;;;;;;;13.97;10.40;;;11.40;97.30;;;;;;5095800;28;20442;-68
2023/05/11 07:54:06;;;;;;;9.80;6.93;;;11.30;97.70;;;;;;5095770;28;20522;-68
2023/05/11 07:56:35;;;;;;;5.43;3.50;;;11.40;96.90;;;;;;5095744;28;20193;-68
2023/05/11 07:59:02;;;;;;;12.33;5.90;;;11.40;96.20;;;;;;5095393;28;20609;-68
2023/05/11 08:01:29;;;;;;;26.37;14.23;;;11.30;96.90;;;;;;5095755;28;20522;-68
2023/05/11 08:03:56;;;;;;;23.40;12.40;;;11.30;96.70;;;;;;5095581;28;20518;-68
2023/05/11 08:06:22;;;;;;;72.23;41.63;;;11.40;96.20;;;;;;5095477;28;20619;-69
2023/05/11 08:08:49;;;;;;;34.85;20.17;;;11.30;95.50;;;;;;5095575;28;20470;-68
2023/05/11 08:11:16;;;;;;;12.25;7.70;;;11.30;95.80;;;;;;5095505;28;20234;-68
2023/05/11 08:13:45;;;;;;;2.37;1.40;;;11.30;96.90;;;;;;5095243;28;20279;-68
2023/05/11 08:16:12;;;;;;;2.00;0.93;;;11.50;96.30;;;;;;5073688;28;20539;-68
2023/05/11 08:18:39;;;;;;;4.87;2.80;;;11.60;95.80;;;;;;5074019;28;21116;-68
2023/05/11 08:21:06;;;;;;;4.50;2.17;;;11.60;95.30;;;;;;5074602;28;20444;-69
2023/05/11 08:23:33;;;;;;;6.07;3.60;;;11.50;95.00;;;;;;5074907;28;20444;-68
2023/05/11 08:26:00;;;;;;;13.20;9.33;;;11.60;95.10;;;;;;5058395;28;20515;-68
2023/05/11 08:28:28;;;;;;;11.40;6.32;;;11.50;94.80;;;;;;5053271;28;20524;-69
2023/05/11 08:30:58;;;;;;;17.63;10.43;;;11.50;95.00;;;;;;5055211;28;20213;-68
2023/05/11 08:33:26;;;;;;;12.67;7.70;;;11.50;95.50;;;;;;5074376;28;20544;-68
2023/05/11 08:35:53;;;;;;;9.32;6.13;;;11.50;95.50;;;;;;5074482;28;20926;-68
2023/05/11 08:38:20;;;;;;;2.53;1.40;;;11.60;96.30;;;;;;5054458;28;20250;-68
2023/05/11 08:40:47;;;;;;;1.80;1.00;;;11.70;96.20;;;;;;5065253;28;20516;-68
2023/05/11 08:43:15;;;;;;;5.50;4.00;;;11.80;96.50;;;;;;5073649;28;20907;-69
2023/05/11 08:45:46;;;;;;;3.37;2.07;;;11.90;96.40;;;;;;5074284;28;20919;-68
2023/05/11 08:48:16;;;;;;;2.47;0.97;;;12.00;95.90;;;;;;5074160;28;20445;-69
2023/05/11 08:50:44;;;;;;;4.00;2.30;;;12.10;96.30;;;;;;5073933;28;20509;-68
2023/05/11 08:53:16;;;;;;;1.77;0.83;;;12.10;96.10;;;;;;5074271;28;20433;-68
2023/05/11 08:55:46;;;;;;;2.20;0.80;;;12.20;95.50;;;;;;5074364;28;20467;-68
2023/05/11 08:58:18;;;;;;;2.80;0.70;;;12.30;95.80;;;;;;5073721;28;20475;-68
2023/05/11 09:00:46;;;;;;;2.00;0.80;;;12.50;95.40;;;;;;5074066;28;20440;-68
2023/05/11 09:03:16;;;;;;;2.90;1.67;;;12.50;95.40;;;;;;5074177;28;20443;-68
2023/05/11 09:05:44;;;;;;;1.93;1.00;;;12.60;95.30;;;;;;5074236;28;20505;-68
2023/05/11 09:08:13;;;;;;;1.50;0.70;;;12.50;95.10;;;;;;5071887;28;20464;-68
2023/05/11 09:10:41;;;;;;;1.70;0.67;;;12.60;94.20;;;;;;5074118;28;20532;-68
2023/05/11 09:13:08;;;;;;;1.70;0.70;;;12.60;94.70;;;;;;5073767;28;20440;-68
2023/05/11 09:15:35;;;;;;;1.70;0.70;;;12.60;94.40;;;;;;5074024;28;20458;-68
2023/05/11 09:18:02;;;;;;;5.00;0.70;;;12.60;94.60;;;;;;5073779;28;20530;-68
2023/05/11 09:20:31;;;;;;;1.90;0.60;;;12.60;94.60;;;;;;5073651;28;20982;-68
2023/05/11 09:22:58;;;;;;;1.57;0.63;;;12.60;94.80;;;;;;5073758;28;20472;-68
2023/05/11 09:25:29;;;;;;;1.80;0.70;;;12.50;95.00;;;;;;5073549;28;20543;-68
2023/05/11 09:27:59;;;;;;;1.87;0.77;;;12.60;95.70;;;;;;5073514;28;20470;-68
2023/05/11 09:30:26;;;;;;;1.60;0.60;;;12.70;95.60;;;;;;5073622;28;20479;-69
2023/05/11 09:32:55;;;;;;;1.70;0.60;;;12.70;94.50;;;;;;5073420;28;20436;-69
2023/05/11 09:35:24;;;;;;;1.87;1.10;;;12.70;94.80;;;;;;5073080;28;20576;-68
2023/05/11 09:38:01;;;;;;;3.13;1.90;;;12.80;94.70;;;;;;5071019;28;20504;-68
2023/05/11 09:40:28;;;;;;;1.60;0.70;;;12.90;93.80;;;;;;5073373;28;20485;-68
2023/05/11 09:42:55;;;;;;;2.67;1.20;;;12.90;94.20;;;;;;5073470;28;20467;-68
2023/05/11 09:45:35;;;;;;;1.80;0.77;;;13.00;95.00;;;;;;5073230;28;20861;-68
2023/05/11 09:48:03;;;;;;;2.00;0.80;;;13.10;94.30;;;;;;5073419;28;20440;-68
2023/05/11 09:50:35;;;;;;;1.87;0.80;;;13.20;93.80;;;;;;5073318;28;20907;-68
2023/05/11 09:53:03;;;;;;;1.60;0.70;;;13.30;93.50;;;;;;5073306;28;20440;-68
2023/05/11 09:55:51;;;;;;;1.60;0.60;;;13.30;94.00;;;;;;5073158;28;20495;-68
2023/05/11 09:58:18;;;;;;;1.50;0.60;;;13.30;94.00;;;;;;5073266;28;20900;-68
2023/05/11 10:00:50;;;;;;;1.50;0.60;;;13.30;94.30;;;;;;5073017;28;20459;-68
2023/05/11 10:03:18;;;;;;;2.33;1.50;;;13.30;93.50;;;;;;5072394;28;20509;-68
2023/05/11 10:05:57;;;;;;;2.00;0.90;;;13.30;92.40;;;;;;5072829;28;20436;-68
2023/05/11 10:08:30;;;;;;;4.17;2.40;;;13.20;91.60;;;;;;5073128;28;20476;-68
2023/05/11 10:10:57;;;;;;;1.93;1.00;;;13.30;92.60;;;;;;5073234;28;20464;-68
2023/05/11 10:13:25;;;;;;;3.80;2.07;;;13.30;92.80;;;;;;5073064;28;20841;-69
2023/05/11 10:15:52;;;;;;;2.43;1.13;;;13.30;93.00;;;;;;5072729;28;20462;-68
2023/05/11 10:18:19;;;;;;;1.70;0.70;;;13.30;91.80;;;;;;5072192;28;20997;-69
2023/05/11 10:20:46;;;;;;;1.50;0.60;;;13.30;90.80;;;;;;5073005;28;20439;-68
2023/05/11 10:23:16;;;;;;;1.60;0.50;;;13.30;91.10;;;;;;5072692;28;20514;-68
2023/05/11 10:25:46;;;;;;;1.50;0.50;;;13.20;90.50;;;;;;5070280;28;21021;-68
2023/05/11 10:28:13;;;;;;;1.50;0.50;;;13.10;91.60;;;;;;5072983;28;20436;-68
2023/05/11 10:30:41;;;;;;;1.60;0.70;;;13.10;91.50;;;;;;5072663;28;21002;-68
2023/05/11 10:33:09;;;;;;;1.50;0.60;;;13.10;91.90;;;;;;5072753;28;20498;-68
2023/05/11 10:35:38;;;;;;;1.50;0.53;;;13.10;91.90;;;;;;5072539;28;20443;-68
2023/05/11 10:38:06;;;;;;;1.50;0.50;;;13.10;92.70;;;;;;5072617;28;20532;-68
2023/05/11 10:40:36;;;;;;;1.70;0.70;;;13.10;91.20;;;;;;5072471;28;20482;-69
2023/05/11 10:43:25;;;;;;;4.03;1.97;;;13.10;91.30;;;;;;5072608;28;20914;-68
2023/05/11 10:45:57;;;;;;;2.80;1.57;;;13.10;92.10;;;;;;5072693;28;20527;-68
2023/05/11 10:48:47;;;;;;;1.80;0.70;;;13.10;92.10;;;;;;5071266;28;20851;-68
2023/05/11 10:51:39;;;;;;;1.60;0.60;;;13.20;90.60;;;;;;5072659;28;20522;-68
2023/05/11 10:54:25;;;;;;;1.80;0.70;;;13.20;90.40;;;;;;5072351;28;20504;-68
2023/05/11 10:57:20;;;;;;;3.47;0.60;;;13.10;91.20;;;;;;5072719;28;20468;-68
2023/05/11 11:00:18;;;;;;;1.70;0.77;;;13.00;91.80;;;;;;5066933;28;20833;-68
2023/05/11 11:02:45;;;;;;;1.60;0.60;;;13.00;92.50;;;;;;5072590;28;20464;-68
2023/05/11 11:05:16;;;;;;;1.50;0.57;;;13.00;92.60;;;;;;5072556;28;20523;-69
2023/05/11 11:08:02;;;;;;;3.80;1.53;;;13.10;91.10;;;;;;5071896;28;20514;-68
2023/05/11 11:10:34;;;;;;;7.87;4.07;;;13.00;91.20;;;;;;5072525;28;20447;-68
2023/05/11 11:13:06;;;;;;;2.70;1.07;;;13.00;92.30;;;;;;5071640;28;20989;-68
2023/05/11 11:16:24;;;;;;;1.60;0.70;;;13.10;92.10;;;;;;5074589;28;20784;-68
2023/05/11 11:19:25;;;;;;;1.70;0.60;;;13.10;91.00;;;;;;5075281;28;20872;-68
2023/05/11 11:21:52;;;;;;;1.80;0.87;;;13.10;91.40;;;;;;5065195;28;20451;-68
2023/05/11 11:24:43;;;;;;;3.53;1.70;;;13.10;91.40;;;;;;5074535;28;20480;-68
2023/05/11 11:27:10;;;;;;;3.80;1.20;;;13.10;91.90;;;;;;5061640;28;20440;-68
2023/05/11 11:29:38;;;;;;;2.50;1.37;;;13.20;92.40;;;;;;5074247;28;20966;-68
2023/05/11 11:32:28;;;;;;;1.80;0.70;;;13.30;91.90;;;;;;5078840;28;20953;-68
2023/05/11 11:34:55;;;;;;;2.30;0.90;;;13.30;90.60;;;;;;5063895;28;20448;-68
2023/05/11 11:37:26;;;;;;;2.20;1.07;;;13.20;90.90;;;;;;5075056;28;20427;-68
2023/05/11 11:39:59;;;;;;;2.47;0.93;;;13.30;90.30;;;;;;5073947;28;20486;-68
2023/05/11 11:42:36;;;;;;;18.60;13.07;;;13.30;90.30;;;;;;5074308;28;20451;-68
2023/05/11 11:45:28;;;;;;;7.27;5.03;;;13.30;90.60;;;;;;5073810;28;20447;-69
2023/05/11 11:48:12;;;;;;;3.17;1.30;;;13.40;90.90;;;;;;5070358;28;20458;-69
2023/05/11 11:50:46;;;;;;;1.90;0.83;;;13.50;91.80;;;;;;5075099;28;20474;-68
2023/05/11 11:54:04;;;;;;;1.53;0.60;;;13.60;91.20;;;;;;5075656;28;20946;-68
2023/05/11 11:56:40;;;;;;;1.60;0.70;;;13.70;90.90;;;;;;5075407;28;20459;-68
2023/05/11 11:59:10;;;;;;;1.50;0.60;;;13.80;90.00;;;;;;5076314;28;20574;-68
2023/05/11 12:01:39;;;;;;;1.70;0.70;;;13.80;90.30;;;;;;5074275;28;20437;-69
2023/05/11 12:04:48;;;;;;;1.70;0.63;;;13.70;90.40;;;;;;5074262;28;20486;-68
2023/05/11 12:07:20;;;;;;;1.57;0.60;;;13.80;90.40;;;;;;5070771;28;20449;-68
2023/05/11 12:09:47;;;;;;;1.60;0.70;;;13.70;90.10;;;;;;5071196;28;20471;-68
2023/05/11 12:12:17;;;;;;;1.60;0.50;;;13.70;89.60;;;;;;5074639;28;20440;-69
2023/05/11 12:14:47;;;;;;;1.60;0.70;;;13.70;90.20;;;;;;5074612;28;20472;-69
2023/05/11 12:17:16;;;;;;;1.50;0.60;;;13.70;90.40;;;;;;5070248;28;20440;-68
2023/05/11 12:19:46;;;;;;;1.83;0.87;;;13.80;88.90;;;;;;5070632;28;20583;-68
2023/05/11 12:22:15;;;;;;;1.90;0.90;;;13.70;90.70;;;;;;5074729;28;20524;-68
2023/05/11 12:24:43;;;;;;;1.60;0.73;;;13.80;90.90;;;;;;5074034;28;20482;-69
2023/05/11 12:27:10;;;;;;;1.60;0.50;;;13.90;90.90;;;;;;5077357;28;20497;-68
2023/05/11 12:29:38;;;;;;;1.60;0.70;;;14.00;90.40;;;;;;5078116;28;20480;-68
2023/05/11 12:32:05;;;;;;;1.50;0.50;;;14.10;90.60;;;;;;5073822;28;20522;-68
2023/05/11 12:34:32;;;;;;;1.60;0.60;;;14.20;89.70;;;;;;5077067;28;20475;-68
2023/05/11 12:37:00;;;;;;;1.80;0.60;;;14.30;86.10;;;;;;5077758;28;20511;-68
2023/05/11 12:39:28;;;;;;;1.60;0.67;;;14.30;85.20;;;;;;5076651;28;20480;-69
2023/05/11 12:41:56;;;;;;;1.57;0.53;;;14.30;85.30;;;;;;5074792;28;20443;-69
2023/05/11 12:44:25;;;;;;;1.60;0.70;;;14.30;85.40;;;;;;5076835;28;20914;-68
2023/05/11 12:46:53;;;;;;;1.57;0.60;;;14.30;85.40;;;;;;5073665;28;20432;-68
2023/05/11 12:49:22;;;;;;;1.87;0.60;;;14.30;85.80;;;;;;5073311;28;20969;-68
2023/05/11 12:51:52;;;;;;;1.70;0.70;;;14.30;85.80;;;;;;5073801;28;20440;-68
2023/05/11 12:54:30;;;;;;;4.23;0.80;;;14.30;85.80;;;;;;5070048;28;20442;-68
2023/05/11 12:56:59;;;;;;;1.70;0.90;;;14.30;87.60;;;;;;5070944;28;20772;-69
2023/05/11 12:59:32;;;;;;;2.13;0.60;;;14.40;87.80;;;;;;5069975;28;20484;-68
2023/05/11 13:02:10;;;;;;;1.67;0.57;;;14.50;87.30;;;;;;5073088;28;20466;-68
2023/05/11 13:04:39;;;;;;;1.70;0.70;;;14.50;86.30;;;;;;5077611;28;20443;-68